KPSC/PSC METAR and TAF weather

Enter ICAO airport designator
Station Type Date Time Source
KPSC METAR 2019/02/20 16:53 UTC NOAA

KPSC 201653Z 31009KT 1 1/4SM -SN BR OVC020 M03/M04 A2987 RMK AO2 SNB37 SLP120 P0000 T10281044


Station Type Date Time Source
KPSC Decoded METAR 2019/02/20 16:53 UTC NOAA

TRI-CITIES AIRPORT, WA, United States (KPSC) 46-16N 119-07W 121M
Feb 20, 2019 - 11:53 AM EST / 2019.02.20 1653 UTC
Wind: from the NW (310 degrees) at 10 MPH (9 KT):0
Visibility: 1 1/4 mile(s):0
Sky conditions: overcast
Weather: light snow; mist
Precipitation last hour: A trace
Temperature: 27.0 F (-2.8 C)
Windchill: 17 F (-8 C):1
Dew Point: 24.1 F (-4.4 C)
Relative Humidity: 88%
Pressure (altimeter): 29.87 in. Hg (1011 hPa)
ob: KPSC 201653Z 31009KT 1 1/4SM -SN BR OVC020 M03/M04 A2987 RMK AO2 SNB37 SLP120 P0000 T10281044
cycle: 17

Station Type Date Time Source
KPSC TAF 2019/02/20 18:33 UTC NOAA

TAF KPSC 201731Z 2018/2118 31008KT 6SM BR VCSH OVC020
TEMPO 2018/2022 1SM -SHSN BR OVC015
FM210300 34008KT P6SM SCT020 BKN035
FM211300 VRB03KT 3SM BR SCT006 BKN070
FM211600 28005KT P6SM SCT008 BKN080


Example: see airport list